• Join FlightAware (Why Join?)
  • Login
  • US Flag 
04:13AM EDT


 

Airport Tracker/Info


-or-


 

Live Flight TrackerFlight Track Log ✈ AAL991 ✈ 06-Jul-2013 ✈ KMIA - SBCF / CNF

Flight Track Log - Related Links

Times and Time Zones

All times are in EDT time to prevent confusion due to time zone crossing. See the AAL991 flight status page for this flight to view local times or setup timezone preferences in your user account.

Time Position Orientation Groundspeed Altitude Reporting Facility
EDT Latitude Longitude Course Direction KTS MPH feet Rate Location/Type
11:38PM 25.7990 -80.2800 40° Northeast 10 12  Level FlightAware
11:41PM 25.7990 -80.2790 90° East 2 2 120 Level FlightAware
11:44PM 25.6942 -79.9573 104° East  Level FlightAware Approximate
11:44PM 25.8000 -80.2790 104° East 20 23  Level FlightAware
11:44PM 25.8000 -80.2800 270° West 19 22 180 Level FlightAware
11:46PM 25.7990 -80.2860 104° East 19 22 240 Level FlightAware
11:47PM 25.6957 -79.9641 104° East  Level FlightAware Approximate
11:47PM 25.7990 -80.2880 270° West 20 23  Level FlightAware
11:48PM 25.7990 -80.2890 270° West 25 29 420 Level FlightAware
11:48PM 25.7990 -80.2900 270° West 26 30 540 Level FlightAware
11:49PM 25.7990 -80.2910 270° West 27 31 600 Level FlightAware
11:49PM 25.7990 -80.2920 270° West 31 36 660 Level FlightAware
11:49PM 25.7990 -80.2940 270° West 32 37 720 Level FlightAware
11:50PM 25.7990 -80.2950 270° West 29 33 900 Level FlightAware
11:50PM 25.8000 -80.2930 61° Northeast 51 59 1,200 Level FlightAware
11:50PM 25.8000 -80.2880 90° East 110 127 1,500 Level FlightAware
11:51PM 25.8000 -80.2760 90° East 110 127 1,920 Level FlightAware
11:51PM 25.7990 -80.2410 92° East 165 190 1,800 2,640 Climbing FlightAware
11:52PM 25.7930 -80.2270 115° Southeast 184 212 2,100 1,260 Climbing FlightAware
11:52PM 25.7820 -80.2040 118° Southeast 218 251 2,700 1,920 Climbing FlightAware
11:52PM 25.7680 -80.1770 120° Southeast 232 267 3,800 2,340 Climbing FlightAware
11:53PM 25.7510 -80.1470 122° Southeast 255 293 4,900 2,640 Climbing FlightAware
11:53PM 25.7420 -80.1120 106° East 259 298 6,300 3,120 Climbing FlightAware
11:54PM 25.7350 -80.0830 105° East 261 300 7,500 2,880 Climbing FlightAware
11:54PM 25.7270 -80.0480 104° East 271 312 8,700 2,700 Climbing FlightAware
11:54PM 25.7220 -80.0270 105° East 273 314 9,400 2,460 Climbing FlightAware
11:55PM 25.7090 -79.9710 104° East 291 335 11,000 1,560 Climbing FlightAware
11:56PM 25.6930 -79.8970 103° East 354 407 11,700 1,320 Climbing FlightAware
11:57PM 25.6760 -79.8220 104° East 381 438 13,000 1,920 Climbing FlightAware
11:57PM 25.6590 -79.7410 103° East 403 464 14,400 2,520 Climbing FlightAware
11:58PM 25.6400 -79.6560 104° East 402 463 16,600 2,640 Climbing FlightAware
11:59PM 25.6190 -79.5630 104° East 413 475 18,300 2,220 Climbing FlightAware
11:59PM 25.6000 -79.4790 104° East 423 487 19,800 2,280 Climbing FlightAware
12:00AM 25.5830 -79.4030 104° East 425 489 21,200 2,100 Climbing FlightAware
12:01AM 25.5640 -79.3180 104° East 431 496 22,500 1,920 Climbing FlightAware
12:01AM 25.5430 -79.2230 104° East 440 506 23,900 1,740 Climbing FlightAware
12:02AM 25.5240 -79.1430 105° East 447 514 24,900 1,500 Climbing FlightAware
12:03AM 25.4950 -79.0500 109° East 461 531 25,900 1,320 Climbing FlightAware
12:03AM 25.4490 -78.9620 120° Southeast 472 543 26,800 1,440 Climbing FlightAware
12:04AM 25.4050 -78.8700 118° Southeast 475 547 28,000 900 Climbing FlightAware
12:05AM 25.3700 -78.7940 117° Southeast 474 545 28,100 1,740 Climbing FlightAware
12:06AM 25.2880 -78.6260 118° Southeast 469 540 31,400 1,620 Climbing FlightAware
12:07AM 25.2440 -78.5380 119° Southeast 469 540 31,600 120 Climbing FlightAware
12:08AM 25.2010 -78.4530 119° Southeast 469 540 31,600 600 Level FlightAware
12:09AM 25.0975 -78.2703 119° Southeast 468 539 33,000 540 Climbing Miami Center
12:10AM 25.0339 -78.1411 119° Southeast 468 539 33,000  Level Miami Center
12:11AM 24.9681 -78.0164 120° Southeast 468 539 33,000  Level Miami Center
12:12AM 24.9042 -77.8900 119° Southeast 468 539 33,000  Level Miami Center
12:13AM 24.8361 -77.7633 121° Southeast 468 539 33,000  Level Miami Center
12:14AM 24.7719 -77.6369 119° Southeast 468 539 33,000  Level Miami Center
12:15AM 24.6975 -77.4969 120° Southeast 468 539 33,000  Level Miami Center
12:16AM 24.6353 -77.3733 119° Southeast 468 539 33,000  Level Miami Center
12:17AM 24.5731 -77.2472 118° Southeast 468 539 33,000  Level Miami Center
12:18AM 24.5083 -77.1239 120° Southeast 468 539 33,000  Level Miami Center
12:19AM 24.4417 -76.9981 120° Southeast 468 539 33,000  Level Miami Center
12:20AM 24.3769 -76.8747 120° Southeast 468 539 33,000  Level Miami Center
12:21AM 24.3122 -76.7494 120° Southeast 468 539 33,000  Level Miami Center
12:22AM 24.2450 -76.6242 120° Southeast 468 539 33,000  Level Miami Center
12:23AM 24.1822 -76.5058 120° Southeast 463 533 33,000  Level Miami Center
12:24AM 24.1150 -76.3783 120° Southeast 468 539 33,000  Level Miami Center
12:25AM 24.0497 -76.2581 121° Southeast 468 539 33,000  Level Miami Center
12:26AM 23.9781 -76.1219 120° Southeast 468 539 33,000  Level Miami Center
12:27AM 23.9125 -75.9950 119° Southeast 468 539 33,000  Level Miami Center
12:28AM 23.8469 -75.8728 120° Southeast 468 539 33,000  Level Miami Center
12:29AM 23.7792 -75.7486 121° Southeast 468 539 33,000  Level Miami Center
12:30AM 23.7133 -75.6219 120° Southeast 468 539 33,000  Level Miami Center
12:31AM 23.6456 -75.4978 121° Southeast 468 539 33,000  Level Miami Center
12:32AM 23.5794 -75.3761 121° Southeast 463 533 33,000  Level Miami Center
12:33AM 23.5114 -75.2525 121° Southeast 468 539 33,000  Level Miami Center
12:34AM 23.4453 -75.1308 121° Southeast 468 539 33,000  Level Miami Center
12:35AM 23.3769 -75.0075 121° Southeast 468 539 33,000  Level Miami Center
12:36AM 23.3106 -74.8861 121° Southeast 468 539 33,000  Level Miami Center
12:37AM 23.2419 -74.7606 121° Southeast 468 539 33,000  Level Miami Center
12:38AM 23.1733 -74.6375 121° Southeast 468 539 33,000  Level Miami Center
12:39AM 23.1047 -74.5122 121° Southeast 468 539 33,000  Level Miami Center
12:40AM 23.0336 -74.3894 122° Southeast 468 539 33,000  Level Miami Center
12:41AM 22.9606 -74.2531 120° Southeast 468 539 33,000  Level Miami Center
12:42AM 22.8892 -74.1283 122° Southeast 473 544 33,000  Level Miami Center
12:43AM 22.8222 -74.0014 120° Southeast 479 551 33,000  Level Miami Center
12:44AM 22.7486 -73.8747 122° Southeast 489 563 33,000  Level Miami Center
12:45AM 22.6750 -73.7481 122° Southeast 489 563 33,000  Level Miami Center
12:46AM 22.6119 -73.6214 118° Southeast 489 563 33,000  Level Miami Center
12:47AM 22.5383 -73.4994 123° Southeast 489 563 33,000  Level Miami Center
12:48AM 22.4664 -73.3733 122° Southeast 489 563 33,000  Level Miami Center
12:49AM 22.3947 -73.2517 122° Southeast 489 563 33,000  Level Miami Center
12:50AM 22.3250 -73.1281 121° Southeast 489 563 33,000  Level Miami Center
12:51AM 22.2550 -73.0067 122° Southeast 489 563 33,000  Level Miami Center
12:52AM 22.1869 -72.8808 120° Southeast 489 563 33,000  Level Miami Center
12:53AM 22.1211 -72.7594 120° Southeast 484 557 33,000  Level Miami Center
12:54AM 22.0469 -72.6342 123° Southeast 484 557 33,000  Level Miami Center
12:55AM 21.9767 -72.5111 122° Southeast 484 557 33,000  Level Miami Center
12:56AM 21.9042 -72.3883 122° Southeast 489 563 33,000  Level Miami Center
12:57AM 21.8336 -72.2633 121° Southeast 489 563 33,000  Level Miami Center
12:58AM 21.7631 -72.1406 122° Southeast 489 563 33,000  Level Miami Center
12:59AM 21.6903 -72.0181 123° Southeast 489 563 33,000  Level Miami Center
01:00AM 21.6197 -71.8958 122° Southeast 489 563 33,000  Level Miami Center
01:01AM 21.5467 -71.7692 122° Southeast 489 563 33,000  Level Miami Center
01:02AM 21.4736 -71.6450 122° Southeast 489 563 33,000  Level Miami Center
01:03AM 21.4028 -71.5228 122° Southeast 489 563 33,000  Level Miami Center
01:04AM 21.3272 -71.3944 122° Southeast 494 568 33,000  Level Miami Center
01:05AM 21.2519 -71.2708 123° Southeast 494 568 33,000 300 Level Miami Center
01:06AM 21.1872 -71.1556 121° Southeast 494 568 33,600 720 Climbing Miami Center
01:07AM 21.1158 -71.0297 121° Southeast 494 568 34,500 660 Climbing Miami Center
01:08AM 21.0400 -70.9019 122° Southeast 504 580 35,000 240 Climbing Miami Center
01:09AM 20.9661 -70.7742 122° Southeast 504 580 35,000  Level Miami Center
01:10AM 20.8903 -70.6489 123° Southeast 504 580 35,000  Level Miami Center
01:11AM 20.8186 -70.5236 121° Southeast 504 580 35,000  Level Miami Center
01:12AM 20.7447 -70.4031 123° Southeast 504 580 35,000  Level Miami Center
01:13AM 20.6708 -70.2781 122° Southeast 504 580 35,000  Level Miami Center
01:14AM 20.5967 -70.1556 123° Southeast 494 568 35,000  Level Miami Center
01:20AM 20.1440 -69.3840 123° Southeast 501 577 35,000  Level FlightAware
01:21AM 20.1050 -69.3180 122° Southeast 501 577 35,000  Level FlightAware
01:22AM 20.0550 -69.2330 122° Southeast 501 577 35,000  Level FlightAware
01:22AM 19.9840 -69.1230 124° Southeast 501 577 35,000  Level FlightAware
01:23AM 19.9280 -69.0320 123° Southeast 501 577 35,000  Level FlightAware
01:24AM 19.8800 -68.9540 123° Southeast 499 574 35,000  Level FlightAware
01:25AM 19.8170 -68.8640 127° Southeast 496 571 35,000  Level FlightAware
01:25AM 19.7580 -68.7840 128° Southeast 495 570 35,000  Level FlightAware
01:26AM 19.7010 -68.7080 129° Southeast 496 571 35,000  Level FlightAware
01:27AM 19.6380 -68.6220 128° Southeast 497 572 35,000  Level FlightAware
01:27AM 19.5920 -68.5600 128° Southeast 497 572 35,000  Level FlightAware
01:28AM 19.5270 -68.4720 128° Southeast 497 572 35,000  Level FlightAware
01:29AM 19.4700 -68.3960 128° Southeast 498 573 35,000  Level FlightAware
01:29AM 19.4140 -68.3190 128° Southeast 497 572 35,000  Level FlightAware
01:30AM 19.3500 -68.2330 128° Southeast 498 573 35,000  Level FlightAware
01:31AM 19.2910 -68.1540 128° Southeast 498 573 35,000  Level FlightAware
01:31AM 19.2310 -68.0730 128° Southeast 499 574 35,000  Level FlightAware
01:32AM 19.1710 -67.9920 128° Southeast 500 575 35,000  Level FlightAware
01:33AM 19.1130 -67.9140 128° Southeast 501 577 35,000  Level FlightAware
01:34AM 19.0520 -67.8320 128° Southeast 501 577 35,000  Level FlightAware
01:34AM 18.9860 -67.7620 135° Southeast 488 562 35,000  Level FlightAware
01:35AM 18.9100 -67.6940 140° Southeast 489 563 35,000  Level FlightAware
01:36AM 18.8420 -67.6310 139° Southeast 488 562 35,000  Level FlightAware
01:36AM 18.7830 -67.5730 137° Southeast 488 562 35,000  Level FlightAware
01:37AM 18.7180 -67.5110 138° Southeast 488 562 35,000  Level FlightAware
01:38AM 18.6390 -67.4340 137° Southeast 486 559 35,000  Level FlightAware
01:38AM 18.5730 -67.3700 137° Southeast 484 557 35,000  Level FlightAware
01:39AM 18.5030 -67.3030 138° Southeast 484 557 35,000  Level FlightAware
01:40AM 18.4320 -67.2340 137° Southeast 484 557 35,000  Level FlightAware
01:40AM 18.3650 -67.1710 138° Southeast 483 556 35,000  Level FlightAware
01:41AM 18.2970 -67.1070 138° Southeast 483 556 35,000  Level FlightAware
01:42AM 18.2230 -67.0390 139° Southeast 484 557 35,000  Level FlightAware
01:43AM 18.1490 -66.9700 138° Southeast 484 557 35,000  Level FlightAware
01:43AM 18.0820 -66.9070 138° Southeast 484 557 35,000  Level FlightAware
01:44AM 18.0090 -66.8400 139° Southeast 483 556 35,000  Level FlightAware
01:45AM 17.9410 -66.7760 138° Southeast 483 556 35,000  Level FlightAware
01:45AM 17.8720 -66.7120 139° Southeast 483 556 35,000  Level FlightAware
01:46AM 17.7970 -66.6420 138° Southeast 483 556 35,000  Level FlightAware
01:47AM 17.7310 -66.5810 139° Southeast 483 556 35,000  Level FlightAware
01:47AM 17.6590 -66.5150 139° Southeast 483 556 35,000  Level FlightAware
01:48AM 17.6030 -66.4630 138° Southeast 483 556 35,000  Level FlightAware
01:49AM 17.5300 -66.3960 139° Southeast 483 556 35,000  Level FlightAware
01:49AM 17.4550 -66.3270 139° Southeast 483 556 35,000  Level FlightAware
01:50AM 17.3800 -66.2580 139° Southeast 483 556 35,000  Level FlightAware
01:51AM 17.3160 -66.2000 139° Southeast 483 556 35,000  Level FlightAware
01:52AM 17.2350 -66.1250 139° Southeast 483 556 35,000  Level FlightAware
01:52AM 17.1770 -66.0720 139° Southeast 483 556 35,000  Level FlightAware
01:53AM 17.1080 -66.0090 139° Southeast 483 556 35,000  Level FlightAware
01:54AM 17.0380 -65.9440 138° Southeast 483 556 35,000  Level FlightAware
01:54AM 16.9760 -65.8880 139° Southeast 483 556 35,000  Level FlightAware
01:55AM 16.8990 -65.8180 139° Southeast 482 555 35,000  Level FlightAware
01:56AM 16.8420 -65.7650 138° Southeast 482 555 35,000  Level FlightAware
01:56AM 16.7550 -65.6870 139° Southeast 481 554 35,000  Level FlightAware
01:58AM 16.6270 -65.5700 139° Southeast 479 551 35,000  Level FlightAware
01:59AM 16.5360 -65.4870 139° Southeast 480 552 35,000  Level FlightAware
01:59AM 16.4650 -65.4240 140° Southeast 481 554 35,000  Level FlightAware
02:00AM 16.3910 -65.3570 139° Southeast 481 554 35,000  Level FlightAware
02:01AM 16.3280 -65.2990 139° Southeast 481 554 35,000  Level FlightAware
02:01AM 16.2780 -65.2510 137° Southeast 481 554 35,000  Level FlightAware
02:02AM 16.2220 -65.1990 138° Southeast 481 554 35,000  Level FlightAware
02:03AM 16.1700 -65.1500 138° Southeast 481 554 35,000  Level FlightAware
02:03AM 16.1020 -65.0870 138° Southeast 481 554 35,000  Level FlightAware
02:04AM 16.0540 -65.0420 138° Southeast 481 554 35,000  Level FlightAware
02:05AM 15.9870 -64.9790 138° Southeast 481 554 35,000  Level FlightAware
02:05AM 15.9360 -64.9310 138° Southeast 481 554 35,000  Level FlightAware
02:06AM 15.8690 -64.8680 138° Southeast 481 554 35,000  Level FlightAware
02:07AM 15.8170 -64.8190 138° Southeast 481 554 35,000  Level FlightAware
02:08AM 15.7480 -64.7550 138° Southeast 481 554 35,000  Level FlightAware
02:08AM 15.6970 -64.7080 138° Southeast 481 554 35,000  Level FlightAware
02:09AM 15.6300 -64.6450 138° Southeast 481 554 35,000  Level FlightAware
02:10AM 15.5790 -64.5970 138° Southeast 481 554 35,000  Level FlightAware
02:17AM 14.8650 -64.0509 149° Southeast  Level FlightAware Approximate
02:18AM 14.7527 -63.9825 149° Southeast  Level FlightAware Approximate
02:19AM 14.6404 -63.9142 150° Southeast  Level FlightAware Approximate
02:20AM 14.5281 -63.8459 150° Southeast  Level FlightAware Approximate
02:21AM 14.4158 -63.7777 150° Southeast  Level FlightAware Approximate
02:22AM 14.3035 -63.7096 150° Southeast  Level FlightAware Approximate
02:23AM 14.1911 -63.6415 150° Southeast  Level FlightAware Approximate
02:24AM 14.0790 -63.5731 149° Southeast  Level FlightAware Approximate
02:25AM 13.9670 -63.5044 149° Southeast  Level FlightAware Approximate
02:26AM 13.8550 -63.4358 149° Southeast  Level FlightAware Approximate
02:27AM 13.7430 -63.3673 149° Southeast  Level FlightAware Approximate
02:28AM 13.6309 -63.2989 149° Southeast  Level FlightAware Approximate
02:28AM 13.4790 -62.9470 149° Southeast 482 555 35,000  Level FlightAware
02:28AM 13.4330 -62.9110 143° Southeast 482 555 35,000  Level FlightAware
02:29AM 13.3610 -62.8530 142° Southeast 482 555 35,000  Level FlightAware
02:30AM 13.2710 -62.7830 143° Southeast 483 556 35,000  Level FlightAware
02:31AM 13.2150 -62.7380 142° Southeast 483 556 35,000  Level FlightAware
02:31AM 13.1430 -62.6810 142° Southeast 483 556 35,000  Level FlightAware
02:32AM 13.0830 -62.6330 142° Southeast 483 556 35,000  Level FlightAware
02:33AM 13.0300 -62.5900 142° Southeast 483 556 35,000  Level FlightAware
02:33AM 12.9700 -62.5420 142° Southeast 483 556 35,000  Level FlightAware
02:34AM 12.8980 -62.4840 142° Southeast 483 556 35,000  Level FlightAware
02:35AM 12.8420 -62.4400 143° Southeast 483 556 35,000  Level FlightAware
02:36AM 12.7720 -62.3830 142° Southeast 483 556 35,000  Level FlightAware
02:36AM 12.7180 -62.3400 142° Southeast 483 556 35,000  Level FlightAware
02:37AM 12.6270 -62.2670 142° Southeast 483 556 35,000  Level FlightAware
02:40AM 12.3566 -62.1106 151° Southeast  Level Estimated
02:41AM 12.2431 -62.0451 151° Southeast  Level Estimated
02:42AM 12.1296 -61.9796 151° Southeast  Level Estimated
02:43AM 12.0161 -61.9142 151° Southeast  Level Estimated
02:44AM 11.9025 -61.8489 151° Southeast  Level Estimated
02:45AM 11.7890 -61.7836 151° Southeast  Level Estimated
02:46AM 11.6754 -61.7183 151° Southeast  Level Estimated
02:47AM 11.5619 -61.6531 151° Southeast  Level Estimated
02:48AM 11.4483 -61.5880 151° Southeast  Level Estimated
02:49AM 11.3347 -61.5229 151° Southeast  Level Estimated
02:49AM 11.1930 -61.1650 151° Southeast 480 552 35,000  Level FlightAware
02:50AM 11.2211 -61.4579 151° Southeast  Level Estimated
02:50AM 11.1240 -61.1110 142° Southeast 481 554 35,000  Level FlightAware
02:51AM 11.0480 -61.0520 143° Southeast 482 555 35,000  Level FlightAware
02:52AM 10.9060 -60.9430 143° Southeast 481 554 35,000  Level FlightAware
02:53AM 10.9220 -60.9560 321° Northwest 481 554 35,000  Level FlightAware
02:54AM 10.6550 -60.7490 151° Southeast 479 551 35,000  Level FlightAware
02:55AM 10.7241 -60.8453 151° Southeast  Level Estimated
02:55AM 10.6010 -60.7080 143° Southeast 479 551 35,000  Level FlightAware
02:56AM 10.5470 -60.6660 143° Southeast 479 551 35,000  Level FlightAware
02:56AM 10.4740 -60.6110 143° Southeast 479 551 35,000  Level FlightAware
02:57AM 10.4020 -60.5560 143° Southeast 479 551 35,000  Level FlightAware
02:58AM 10.3480 -60.5140 143° Southeast 479 551 35,000  Level FlightAware
02:59AM 10.2760 -60.4590 143° Southeast 479 551 35,000  Level FlightAware
02:59AM 10.2220 -60.4170 143° Southeast 479 551 35,000  Level FlightAware
03:01AM 10.0370 -60.2760 143° Southeast 479 551 35,000  Level FlightAware
03:04AM 9.7849 -60.1375 152° Southeast  Level Estimated
03:05AM 9.6703 -60.0746 152° Southeast  Level Estimated
03:06AM 9.5557 -60.0118 152° Southeast  Level Estimated
03:07AM 9.4410 -59.9490 152° Southeast  Level Estimated
03:08AM 9.3264 -59.8862 152° Southeast  Level Estimated
03:09AM 9.2118 -59.8235 152° Southeast  Level Estimated
03:10AM 9.0971 -59.7608 152° Southeast  Level Estimated
03:11AM 8.9824 -59.6982 152° Southeast  Level Estimated
03:12AM 8.8677 -59.6356 152° Southeast  Level Estimated
03:13AM 8.7530 -59.5730 152° Southeast  Level Estimated
03:14AM 8.6383 -59.5105 152° Southeast  Level Estimated
03:15AM 8.5236 -59.4480 152° Southeast  Level Estimated
03:16AM 8.4089 -59.3856 152° Southeast  Level Estimated
03:17AM 8.2941 -59.3232 152° Southeast  Level Estimated
03:18AM 8.1794 -59.2608 152° Southeast  Level Estimated
03:19AM 8.0646 -59.1985 152° Southeast  Level Estimated
03:20AM 7.9499 -59.1362 152° Southeast  Level Estimated
03:21AM 7.8351 -59.0739 152° Southeast  Level Estimated
03:22AM 7.7203 -59.0117 152° Southeast  Level Estimated
03:23AM 7.6055 -58.9495 152° Southeast  Level Estimated
03:24AM 7.4907 -58.8873 152° Southeast  Level Estimated
03:25AM 7.3759 -58.8252 152° Southeast  Level Estimated
03:26AM 7.2611 -58.7631 152° Southeast  Level Estimated
03:27AM 7.1463 -58.7010 152° Southeast  Level Estimated
03:28AM 7.0314 -58.6390 152° Southeast  Level Estimated
03:29AM 6.9166 -58.5770 152° Southeast  Level Estimated
03:30AM 6.8018 -58.5150 152° Southeast  Level Estimated
03:31AM 6.6869 -58.4531 152° Southeast  Level Estimated
03:32AM 6.5720 -58.3911 152° Southeast  Level Estimated
03:33AM 6.4571 -58.3293 152° Southeast  Level Estimated
03:34AM 6.3423 -58.2674 152° Southeast  Level Estimated
03:35AM 6.2274 -58.2056 152° Southeast  Level Estimated
03:36AM 6.1125 -58.1438 152° Southeast  Level Estimated
03:37AM 5.9976 -58.0820 152° Southeast  Level Estimated
03:38AM 5.8827 -58.0202 152° Southeast  Level Estimated
03:39AM 5.7677 -57.9585 152° Southeast  Level Estimated
03:40AM 5.6528 -57.8968 152° Southeast  Level Estimated
03:41AM 5.5379 -57.8351 152° Southeast  Level Estimated
03:42AM 5.4230 -57.7735 152° Southeast  Level Estimated
03:43AM 5.3080 -57.7118 152° Southeast  Level Estimated
03:44AM 5.1931 -57.6502 152° Southeast  Level Estimated
03:45AM 5.0781 -57.5886 152° Southeast  Level Estimated
03:46AM 4.9632 -57.5271 152° Southeast  Level Estimated
03:47AM 4.8482 -57.4655 152° Southeast  Level Estimated
03:48AM 4.7332 -57.4040 152° Southeast  Level Estimated
03:49AM 4.6182 -57.3425 152° Southeast  Level Estimated
03:50AM 4.5033 -57.2811 152° Southeast  Level Estimated
03:51AM 4.3883 -57.2196 152° Southeast  Level Estimated
03:52AM 4.2733 -57.1581 152° Southeast  Level Estimated
03:53AM 4.1583 -57.0967 152° Southeast  Level Estimated
03:54AM 4.0433 -57.0353 152° Southeast  Level Estimated
03:55AM 3.9283 -56.9739 152° Southeast  Level Estimated
03:56AM 3.8133 -56.9126 152° Southeast  Level Estimated
03:57AM 3.6982 -56.8512 152° Southeast  Level Estimated
03:58AM 3.5832 -56.7899 152° Southeast  Level Estimated
03:59AM 3.4682 -56.7286 152° Southeast  Level Estimated
04:00AM 3.3532 -56.6673 152° Southeast  Level Estimated
04:01AM 3.2381 -56.6060 152° Southeast  Level Estimated
04:02AM 3.1231 -56.5447 152° Southeast  Level Estimated
04:03AM 3.0081 -56.4834 152° Southeast  Level Estimated
04:04AM 2.8930 -56.4222 152° Southeast  Level Estimated
04:05AM 2.7780 -56.3609 152° Southeast  Level Estimated
04:06AM 2.6629 -56.2997 152° Southeast  Level Estimated
04:07AM 2.5479 -56.2385 152° Southeast  Level Estimated
04:08AM 2.4328 -56.1773 152° Southeast  Level Estimated
04:09AM 2.3178 -56.1161 152° Southeast  Level Estimated
04:10AM 2.2027 -56.0549 152° Southeast  Level Estimated
04:11AM 2.0876 -55.9937 152° Southeast  Level Estimated
04:12AM 1.9726 -55.9325 152° Southeast  Level Estimated
04:13AM 1.8575 -55.8714 152° Southeast  Level Estimated
04:14AM 1.7424 -55.8102 152° Southeast  Level Estimated
04:15AM 1.6274 -55.7491 152° Southeast  Level Estimated
04:16AM 1.5123 -55.6879 152° Southeast  Level Estimated
04:17AM 1.3972 -55.6268 152° Southeast  Level Estimated
04:18AM 1.2821 -55.5657 152° Southeast  Level Estimated
04:19AM 1.1671 -55.5046 152° Southeast  Level Estimated
04:20AM 1.0520 -55.4435 152° Southeast  Level Estimated
04:21AM 0.9369 -55.3823 152° Southeast  Level Estimated
04:22AM 0.8218 -55.3212 152° Southeast  Level Estimated
04:23AM 0.7067 -55.2601 152° Southeast  Level Estimated
04:24AM 0.5917 -55.1990 152° Southeast  Level Estimated
04:25AM 0.4766 -55.1379 152° Southeast  Level Estimated
04:26AM 0.3615 -55.0769 152° Southeast  Level Estimated
04:27AM 0.2464 -55.0158 152° Southeast  Level Estimated
04:28AM 0.1313 -54.9547 152° Southeast  Level Estimated
04:29AM 0.0162 -54.8936 152° Southeast  Level Estimated
04:30AM -0.0989 -54.8325 152° Southeast  Level Estimated
04:31AM -0.2140 -54.7714 152° Southeast  Level Estimated
04:32AM -0.3291 -54.7103 152° Southeast  Level Estimated
04:33AM -0.4441 -54.6492 152° Southeast  Level Estimated
04:34AM -0.5592 -54.5881 152° Southeast  Level Estimated
04:35AM -0.6743 -54.5270 152° Southeast  Level Estimated
04:36AM -0.7894 -54.4659 152° Southeast  Level Estimated
04:37AM -0.9044 -54.4048 152° Southeast  Level Estimated
04:38AM -1.0195 -54.3437 152° Southeast  Level Estimated
04:39AM -1.1346 -54.2826 152° Southeast  Level Estimated
04:40AM -1.2497 -54.2215 152° Southeast  Level Estimated
04:41AM -1.3648 -54.1604 152° Southeast  Level Estimated
04:42AM -1.4799 -54.0992 152° Southeast  Level Estimated
04:43AM -1.5949 -54.0381 152° Southeast  Level Estimated
04:44AM -1.7100 -53.9770 152° Southeast  Level Estimated
04:45AM -1.8251 -53.9158 152° Southeast  Level Estimated
04:46AM -1.9401 -53.8546 152° Southeast  Level Estimated
04:47AM -2.0552 -53.7935 152° Southeast  Level Estimated
04:48AM -2.1703 -53.7323 152° Southeast  Level Estimated
04:49AM -2.2853 -53.6711 152° Southeast  Level Estimated
04:50AM -2.4004 -53.6100 152° Southeast  Level Estimated
04:51AM -2.5154 -53.5488 152° Southeast  Level Estimated
04:52AM -2.6305 -53.4875 152° Southeast  Level Estimated
04:53AM -2.7455 -53.4263 152° Southeast  Level Estimated
04:54AM -2.8606 -53.3651 152° Southeast  Level Estimated
04:55AM -2.9756 -53.3038 152° Southeast  Level Estimated
04:56AM -3.0907 -53.2426 152° Southeast  Level Estimated
04:57AM -3.2057 -53.1813 152° Southeast  Level Estimated
04:58AM -3.3207 -53.1200 152° Southeast  Level Estimated
04:59AM -3.4358 -53.0587 152° Southeast  Level Estimated
05:00AM -3.5508 -52.9974 152° Southeast  Level Estimated
05:01AM -3.6658 -52.9360 152° Southeast  Level Estimated
05:02AM -3.7808 -52.8747 152° Southeast  Level Estimated
05:03AM -3.8958 -52.8133 152° Southeast  Level Estimated
05:04AM -4.0109 -52.7519 152° Southeast  Level Estimated
05:05AM -4.1259 -52.6905 152° Southeast  Level Estimated
05:06AM -4.2409 -52.6291 152° Southeast  Level Estimated
05:07AM -4.3559 -52.5677 152° Southeast  Level Estimated
05:08AM -4.4708 -52.5062 152° Southeast  Level Estimated
05:09AM -4.5858 -52.4448 152° Southeast  Level Estimated
05:10AM -4.7008 -52.3833 152° Southeast  Level Estimated
05:11AM -4.8158 -52.3218 152° Southeast  Level Estimated
05:12AM -4.9307 -52.2602 152° Southeast  Level Estimated
05:13AM -5.0457 -52.1987 152° Southeast  Level Estimated
05:14AM -5.1607 -52.1371 152° Southeast  Level Estimated
05:15AM -5.2756 -52.0755 152° Southeast  Level Estimated
05:16AM -5.3906 -52.0139 152° Southeast  Level Estimated
05:17AM -5.5055 -51.9522 152° Southeast  Level Estimated
05:18AM -5.6204 -51.8905 152° Southeast  Level Estimated
05:19AM -5.7354 -51.8289 152° Southeast  Level Estimated
05:20AM -5.8503 -51.7671 152° Southeast  Level Estimated
05:21AM -5.9652 -51.7054 152° Southeast  Level Estimated
05:22AM -6.0801 -51.6436 152° Southeast  Level Estimated
05:23AM -6.1950 -51.5818 152° Southeast  Level Estimated
05:24AM -6.3099 -51.5200 152° Southeast  Level Estimated
05:25AM -6.4247 -51.4582 152° Southeast  Level Estimated
05:26AM -6.5396 -51.3963 152° Southeast  Level Estimated
05:27AM -6.6545 -51.3344 152° Southeast  Level Estimated
05:28AM -6.7694 -51.2724 152° Southeast  Level Estimated
05:29AM -6.8842 -51.2105 152° Southeast  Level Estimated
05:30AM -6.9991 -51.1485 152° Southeast  Level Estimated
05:31AM -7.1139 -51.0864 152° Southeast  Level Estimated
05:32AM -7.2287 -51.0244 152° Southeast  Level Estimated
05:33AM -7.3435 -50.9623 152° Southeast  Level Estimated
05:34AM -7.4584 -50.9002 152° Southeast  Level Estimated
05:35AM -7.5732 -50.8380 152° Southeast  Level Estimated
05:36AM -7.6879 -50.7758 152° Southeast  Level Estimated
05:37AM -7.8027 -50.7136 152° Southeast  Level Estimated
05:38AM -7.9175 -50.6513 152° Southeast  Level Estimated
05:39AM -8.0323 -50.5891 152° Southeast  Level Estimated
05:40AM -8.1470 -50.5267 152° Southeast  Level Estimated
05:41AM -8.2618 -50.4644 152° Southeast  Level Estimated
05:42AM -8.3765 -50.4020 152° Southeast  Level Estimated
05:43AM -8.4913 -50.3396 152° Southeast  Level Estimated
05:44AM -8.6060 -50.2771 152° Southeast  Level Estimated
05:45AM -8.7207 -50.2146 152° Southeast  Level Estimated
05:46AM -8.8354 -50.1520 152° Southeast  Level Estimated
05:47AM -8.9501 -50.0894 152° Southeast  Level Estimated
05:48AM -9.0648 -50.0268 152° Southeast  Level Estimated
05:49AM -9.1794 -49.9641 152° Southeast  Level Estimated
05:50AM -9.2941 -49.9014 152° Southeast  Level Estimated
05:51AM -9.4087 -49.8387 152° Southeast  Level Estimated
05:51AM -10.2130 -50.9380 152° Southeast 452 520 37,000  Level FlightAware
05:52AM -9.5234 -49.7759 152° Southeast  Level Estimated
05:52AM -10.2920 -50.8960 152° Southeast 452 520 37,000  Level FlightAware
05:53AM -10.3500 -50.8650 152° Southeast 452 520 37,000  Level FlightAware
05:54AM -10.4250 -50.8240 152° Southeast 452 520 37,000  Level FlightAware
05:54AM -10.4810 -50.7930 151° Southeast 452 520 37,000  Level FlightAware
05:55AM -10.8680 -50.5990 154° Southeast 453 521 37,000  Level FlightAware
05:56AM -10.7890 -50.6400 333° Northwest 454 522 37,000  Level FlightAware
05:57AM -11.0360 -50.5130 153° Southeast 453 521 37,000  Level FlightAware
05:58AM -11.1150 -50.4720 153° Southeast 453 521 37,000  Level FlightAware
05:58AM -11.1960 -50.4300 153° Southeast 452 520 37,000  Level FlightAware
05:59AM -11.2950 -50.3790 153° Southeast 451 519 37,000  Level FlightAware
06:02AM -11.5453 -50.1952 144° Southeast  Level Estimated
06:02AM -11.4500 -50.2990 144° Southeast 449 517 37,000  Level FlightAware
06:02AM -11.4610 -50.2930 152° Southeast 37,000  Level FlightAware
06:03AM -11.7010 -50.1700 153° Southeast 447 514 37,000  Level FlightAware
06:04AM -11.7770 -50.1300 153° Southeast 447 514 37,000  Level FlightAware
06:04AM -11.8860 -50.0740 153° Southeast 446 513 37,000  Level FlightAware
06:05AM -11.9800 -50.0260 153° Southeast 445 512 37,000  Level FlightAware
06:06AM -12.0600 -49.9840 153° Southeast 445 512 37,000  Level FlightAware
06:07AM -12.1420 -49.9410 153° Southeast 444 511 37,000  Level FlightAware
06:08AM -12.2180 -49.9020 153° Southeast 444 511 37,000  Level FlightAware
06:08AM -12.1030 -49.9620 333° Northwest 37,000  Level FlightAware
06:08AM -12.3070 -49.8560 153° Southeast 441 507 37,000  Level FlightAware
06:09AM -12.3690 -49.8240 153° Southeast 441 507 37,000  Level FlightAware
06:10AM -12.4430 -49.7850 153° Southeast 441 507 37,000  Level FlightAware
06:10AM -12.4990 -49.7560 153° Southeast 441 507 37,000  Level FlightAware
06:11AM -12.5620 -49.7230 153° Southeast 441 507 37,000  Level FlightAware
06:12AM -12.6360 -49.6850 153° Southeast 441 507 37,000  Level FlightAware
06:12AM -12.6920 -49.6550 152° Southeast 441 507 37,000  Level FlightAware
06:13AM -12.7670 -49.6160 153° Southeast 441 507 37,000  Level FlightAware
06:14AM -12.8230 -49.5870 153° Southeast 441 507 37,000  Level FlightAware
06:15AM -12.8970 -49.5480 153° Southeast 441 507 37,000  Level FlightAware
06:16AM -13.0180 -49.4850 153° Southeast 441 507 37,000  Level FlightAware
06:17AM -13.0930 -49.4450 153° Southeast 441 507 37,000  Level FlightAware
06:17AM -13.1460 -49.4180 154° Southeast 441 507 37,000  Level FlightAware
06:18AM -13.1990 -49.3900 153° Southeast 441 507 37,000  Level FlightAware
06:21AM -13.4685 -49.1718 142° Southeast  Level Estimated
06:22AM -13.5708 -49.0888 142° Southeast  Level Estimated
06:23AM -13.6731 -49.0057 142° Southeast  Level Estimated
06:24AM -13.7753 -48.9226 142° Southeast  Level Estimated
06:25AM -13.8775 -48.8393 142° Southeast  Level Estimated
06:25AM -14.1200 -48.9200 142° Southeast 453 521 37,000  Level FlightAware
06:25AM -14.1820 -48.8880 153° Southeast 453 521 37,000  Level FlightAware
06:26AM -14.2390 -48.8580 153° Southeast 453 521 37,000  Level FlightAware
06:27AM -14.3160 -48.8170 153° Southeast 453 521 37,000  Level FlightAware
06:27AM -14.4220 -48.7640 154° Southeast 456 525 37,000  Level FlightAware
06:29AM -14.5800 -48.6820 153° Southeast 456 525 37,000  Level FlightAware
06:29AM -14.6540 -48.6430 153° Southeast 457 526 37,000  Level FlightAware
06:30AM -14.7070 -48.6060 146° Southeast 460 529 37,000  Level FlightAware
06:31AM -14.7770 -48.5460 140° Southeast 461 531 37,000  Level FlightAware
06:31AM -14.8540 -48.4790 140° Southeast 459 528 37,000  Level FlightAware
06:32AM -14.9280 -48.4350 150° Southeast 456 525 37,000  Level FlightAware
06:33AM -15.0050 -48.4000 156° South 456 525 37,000  Level FlightAware
06:33AM -15.0930 -48.3620 157° South 456 525 37,000  Level FlightAware
06:34AM -15.1600 -48.3320 157° South 457 526 37,000  Level FlightAware
06:35AM -15.2400 -48.2970 157° South 458 527 37,000  Level FlightAware
06:35AM -15.3160 -48.2620 156° South 458 527 37,000  Level FlightAware
06:36AM -15.4040 -48.2220 156° South 458 527 37,000  Level FlightAware
06:37AM -15.4800 -48.1880 157° South 459 528 37,000  Level FlightAware
06:37AM -15.5590 -48.1510 156° South 460 529 37,000  Level FlightAware
06:38AM -15.6510 -48.1090 156° South 460 529 37,000  Level FlightAware
06:39AM -15.7390 -48.0690 156° South 461 531 37,000  Level FlightAware
06:40AM -15.8220 -48.0310 156° South 462 532 37,000  Level FlightAware
06:40AM -15.9030 -47.9900 154° Southeast 465 535 37,000  Level FlightAware
06:41AM -15.9770 -47.9470 151° Southeast 465 535 37,000  Level FlightAware
06:42AM -16.0590 -47.8980 150° Southeast 466 536 37,000  Level FlightAware
06:42AM -16.1360 -47.8520 150° Southeast 466 536 37,000  Level FlightAware
06:43AM -16.2170 -47.8030 150° Southeast 466 536 37,000  Level FlightAware
06:44AM -16.2910 -47.7590 150° Southeast 466 536 37,000  Level FlightAware
06:45AM -16.3700 -47.7110 150° Southeast 466 536 37,000  Level FlightAware
06:45AM -16.4660 -47.6530 150° Southeast 466 536 37,000  Level FlightAware
06:46AM -16.5420 -47.6070 150° Southeast 467 537 37,000  Level FlightAware
06:47AM -16.6170 -47.5620 150° Southeast 467 537 37,000  Level FlightAware
06:47AM -16.6890 -47.5180 150° Southeast 467 537 37,000  Level FlightAware
06:48AM -16.7560 -47.4780 150° Southeast 467 537 37,000  Level FlightAware
06:49AM -16.8280 -47.4340 150° Southeast 467 537 37,000  Level FlightAware
06:49AM -16.9190 -47.3790 150° Southeast 469 540 37,000  Level FlightAware
06:50AM -16.9910 -47.3350 150° Southeast 468 539 37,000  Level FlightAware
06:51AM -17.0660 -47.2900 150° Southeast 468 539 37,000  Level FlightAware
06:51AM -17.1470 -47.2400 149° Southeast 468 539 37,000  Level FlightAware
06:52AM -17.2220 -47.1940 150° Southeast 467 537 37,000  Level FlightAware
06:53AM -17.2830 -47.1560 149° Southeast 467 537 37,000  Level FlightAware
06:53AM -17.3800 -47.0980 150° Southeast 468 539 37,000  Level FlightAware
06:54AM -17.4620 -47.0470 149° Southeast 468 539 37,000  Level FlightAware
06:55AM -17.5300 -47.0040 149° Southeast 469 540 37,000  Level FlightAware
06:55AM -17.6000 -46.9610 150° Southeast 469 540 37,000  Level FlightAware
06:56AM -17.6820 -46.9100 149° Southeast 469 540 37,000  Level FlightAware
06:57AM -17.7570 -46.8630 149° Southeast 470 541 37,000  Level FlightAware
06:58AM -17.8440 -46.8090 149° Southeast 469 540 37,000  Level FlightAware
06:58AM -17.9090 -46.7690 150° Southeast 469 540 37,000  Level FlightAware
06:59AM -17.9800 -46.7240 149° Southeast 469 540 37,000  Level FlightAware
07:01AM -18.1350 -46.6260 149° Southeast 469 540 37,000  Level FlightAware
07:02AM -18.2530 -46.5510 149° Southeast 469 540 37,000  Level FlightAware
07:02AM -18.3100 -46.5150 149° Southeast 469 540 37,000  Level FlightAware
07:03AM -18.3870 -46.4660 149° Southeast 469 540 37,000  Level FlightAware
07:04AM -18.4440 -46.4300 149° Southeast 469 540 37,000  Level FlightAware
07:04AM -18.5010 -46.3940 149° Southeast 469 540 37,000  Level FlightAware
07:05AM -18.5740 -46.3480 149° Southeast 469 540 37,000  Level FlightAware
07:06AM -18.7370 -46.2290 145° Southeast 477 549 37,000  Level FlightAware
07:06AM -18.7770 -46.1460 117° Southeast 483 556 37,000  Level FlightAware
07:07AM -18.8140 -46.0480 112° Southeast 484 557 37,000  Level FlightAware
07:08AM -18.8440 -45.9680 112° Southeast 484 557 37,000  Level FlightAware
07:08AM -18.8780 -45.8750 111° Southeast 485 558 37,000 -300 Level FlightAware
07:09AM -18.9130 -45.7800 111° Southeast 486 559 36,600 -1,680 Descending FlightAware
07:10AM -18.9450 -45.6930 111° Southeast 489 563 34,800 -3,060 Descending FlightAware
07:11AM -18.9820 -45.5930 111° Southeast 491 565 32,300 -3,120 Descending FlightAware
07:11AM -19.0150 -45.5040 111° Southeast 481 554 30,400 -2,700 Descending FlightAware
07:12AM -19.0500 -45.4080 111° Southeast 465 535 28,500 -2,520 Descending FlightAware
07:13AM -19.0810 -45.3230 111° Southeast 453 521 26,900 -2,460 Descending FlightAware
07:13AM -19.1070 -45.2510 111° Southeast 442 509 25,500 -2,400 Descending FlightAware
07:14AM -19.1390 -45.1630 111° Southeast 427 491 23,700 -2,400 Descending FlightAware
07:15AM -19.1670 -45.0870 111° Southeast 414 476 22,100 -2,340 Descending FlightAware
07:15AM -19.1970 -45.0020 111° Southeast 400 460 20,400 -2,280 Descending FlightAware
07:16AM -19.2220 -44.9330 111° Southeast 389 448 18,900 -1,500 Descending FlightAware
07:17AM -19.2520 -44.8490 111° Southeast 383 441 18,100 -480 Descending FlightAware
07:18AM -19.2780 -44.7770 111° Southeast 383 441 18,100  Level FlightAware
07:18AM -19.2980 -44.7240 112° Southeast 383 441 18,100 -3,300 Level FlightAware
07:19AM -19.3310 -44.6260 110° East 356 410 13,500 -2,460 Descending FlightAware
07:21AM -19.3670 -44.5080 108° East 306 352 12,800 -960 Descending FlightAware
07:21AM -19.3770 -44.4540 101° East 302 348 11,600 -780 Descending FlightAware
07:22AM -19.3930 -44.3790 103° East 302 348 11,600  Level FlightAware
07:25AM -19.5508 -44.1105 122° Southeast  Level Estimated
07:26AM -19.6169 -43.9976 122° Southeast  Level Estimated
07:27AM -19.6338 -43.9689 122° Southeast  Level Estimated
07:28AM -19.6338 -43.9689 90° East  Level Estimated
07:29AM -19.6338 -43.9689 90° East  Level Estimated
07:30AM -19.6338 -43.9689 90° East  Level Estimated
07:31AM -19.6338 -43.9689 90° East  Level Estimated